Time;durP1;ratioP1;P1;durP2;ratioP2;P2;SDS_P1;SDS_P2;PMS_P1;PMS_P2;Temp;Humidity;BMP_temperature;BMP_pressure;BME280_temperature;BME280_humidity;BME280_pressure;Samples;Min_cycle;Max_cycle;Signal;HPM_P1;HPM_P2
2022/09/22 00:01:30;;;;;;;24.85;19.65;;;;;;;8.79;65.39;97376.56;6163235;23;20017;-87
2022/09/22 00:04:00;;;;;;;17.08;13.18;;;;;;;8.69;65.06;97370.66;6162964;23;20022;-89
2022/09/22 00:06:32;;;;;;;12.25;9.20;;;;;;;8.61;65.13;97369.59;6161839;23;20045;-85
2022/09/22 00:09:02;;;;;;;9.47;6.93;;;;;;;8.58;65.11;97358.69;6161417;23;20027;-84
2022/09/22 00:11:32;;;;;;;7.05;4.57;;;;;;;8.53;65.06;97358.34;6161099;23;20017;-86
2022/09/22 00:14:02;;;;;;;4.78;3.58;;;;;;;8.50;65.23;97359.44;6162330;23;20018;-84
2022/09/22 00:16:35;;;;;;;4.55;3.88;;;;;;;8.48;65.90;97350.97;6161937;23;20037;-90
2022/09/22 00:19:05;;;;;;;5.00;3.47;;;;;;;8.46;65.31;97352.91;6161391;23;20021;-83
2022/09/22 00:21:34;;;;;;;5.82;3.55;;;;;;;8.44;64.84;97350.47;6159679;23;20025;-84
2022/09/22 00:24:05;;;;;;;4.97;2.78;;;;;;;8.40;64.63;97343.09;6161707;23;20018;-89
2022/09/22 00:26:34;;;;;;;3.75;3.22;;;;;;;8.38;64.81;97345.03;6162032;23;20051;-89
2022/09/22 00:29:02;;;;;;;3.10;2.20;;;;;;;8.37;64.92;97344.19;6162744;23;20017;-84
2022/09/22 00:31:30;;;;;;;3.13;2.70;;;;;;;8.38;64.96;97347.63;6162718;23;20029;-91
2022/09/22 00:33:58;;;;;;;3.47;2.60;;;;;;;8.37;64.95;97343.38;6164946;23;20069;-90
2022/09/22 00:36:27;;;;;;;4.93;3.15;;;;;;;8.36;65.11;97341.75;6165226;23;20036;-89
2022/09/22 00:38:58;;;;;;;2.92;2.38;;;;;;;8.36;65.14;97339.16;6166365;23;20077;-88
2022/09/22 00:41:29;;;;;;;3.63;2.85;;;;;;;8.35;65.17;97340.94;6164829;23;20017;-86
2022/09/22 00:44:34;;;;;;;3.35;3.05;;;;;;;8.35;65.29;97337.50;6164043;23;20025;-88
2022/09/22 00:47:13;;;;;;;4.18;2.65;;;;;;;8.31;65.23;97337.00;6163548;23;20033;-87
2022/09/22 00:49:48;;;;;;;6.57;3.28;;;;;;;8.26;65.16;97344.41;6163919;23;20343;-85
2022/09/22 00:52:21;;;;;;;3.38;2.92;;;;;;;8.22;65.50;97341.31;6162486;23;20029;-89
2022/09/22 00:54:53;;;;;;;5.60;3.47;;;;;;;8.20;65.50;97334.63;6163009;23;20419;-87
2022/09/22 00:57:23;;;;;;;6.70;3.53;;;;;;;8.22;65.58;97336.13;6162833;23;20018;-89
2022/09/22 00:59:53;;;;;;;4.85;3.35;;;;;;;8.18;65.50;97342.56;6162525;23;20243;-87
2022/09/22 01:02:21;;;;;;;5.57;2.83;;;;;;;8.16;65.33;97336.69;6162389;23;20014;-84
2022/09/22 01:04:50;;;;;;;4.15;3.33;;;;;;;8.12;65.54;97324.97;6162756;23;20039;-85
2022/09/22 01:07:19;;;;;;;5.50;3.17;;;;;;;8.08;65.67;97330.59;6164930;23;20024;-89
2022/09/22 01:09:47;;;;;;;4.70;3.58;;;;;;;8.05;65.87;97324.75;6164380;23;20040;-87
2022/09/22 01:12:16;;;;;;;9.30;3.05;;;;;;;8.03;66.23;97324.06;6163757;23;20024;-85
2022/09/22 01:15:00;;;;;;;2.67;2.40;;;;;;;8.03;66.52;97323.25;6164068;23;20013;-82
2022/09/22 01:17:35;;;;;;;2.83;2.63;;;;;;;8.00;66.42;97328.72;6163550;23;20021;-81
2022/09/22 01:20:24;;;;;;;4.40;2.38;;;;;;;7.99;66.91;97327.13;6161237;23;20017;-82
2022/09/22 01:23:24;;;;;;;3.42;2.35;;;;;;;7.97;66.84;97321.25;6161672;23;20029;-84
2022/09/22 01:26:10;;;;;;;3.85;2.90;;;;;;;8.03;69.44;97321.47;6160422;23;20018;-78
2022/09/22 01:29:03;;;;;;;5.95;3.67;;;;;;;8.11;70.07;97323.34;6127244;23;20097;-78
2022/09/22 01:31:37;;;;;;;5.43;3.85;;;;;;;8.09;67.15;97324.44;6125893;23;20472;-79
2022/09/22 01:34:08;;;;;;;7.35;3.95;;;;;;;8.04;66.67;97324.88;6126965;23;20358;-78
2022/09/22 01:36:42;;;;;;;5.95;4.55;;;;;;;7.99;67.17;97324.50;6127263;23;20029;-78
2022/09/22 01:39:17;;;;;;;5.28;4.03;;;;;;;7.99;67.43;97334.91;6127179;23;20022;-78
2022/09/22 01:41:51;;;;;;;5.22;4.72;;;;;;;7.99;66.96;97324.50;6125782;23;20061;-79
2022/09/22 01:44:26;;;;;;;5.80;4.20;;;;;;;7.96;66.69;97330.00;6126346;23;20069;-78
2022/09/22 01:47:00;;;;;;;4.15;3.75;;;;;;;7.92;67.21;97326.88;6126173;23;20025;-79
2022/09/22 01:49:32;;;;;;;5.93;4.45;;;;;;;7.93;66.81;97325.09;6126903;23;20636;-79
2022/09/22 01:52:05;;;;;;;4.95;4.53;;;;;;;7.97;67.55;97329.03;6126310;23;20026;-78
2022/09/22 01:54:38;;;;;;;6.20;4.40;;;;;;;7.98;67.40;97328.06;6126927;23;20026;-78
2022/09/22 01:57:13;;;;;;;5.22;4.45;;;;;;;7.95;66.48;97320.56;6124668;23;20028;-79
2022/09/22 01:59:46;;;;;;;4.55;4.10;;;;;;;7.96;66.84;97324.78;6126581;23;20411;-78
2022/09/22 02:02:19;;;;;;;;;;;;;;;7.98;66.43;97322.88;6124562;23;20354;-78
2022/09/22 02:04:53;;;;;;;5.18;3.72;;;;;;;7.96;68.55;97322.19;6128853;23;19917;-78
2022/09/22 02:07:24;;;;;;;5.28;4.47;;;;;;;8.00;67.74;97326.13;6146691;23;20021;-78
2022/09/22 02:09:52;;;;;;;7.20;4.47;;;;;;;7.98;67.33;97326.31;6137493;23;20061;-79
2022/09/22 02:12:20;;;;;;;5.93;3.85;;;;;;;8.01;67.67;97322.59;6124314;23;20105;-81
2022/09/22 02:14:49;;;;;;;5.35;3.90;;;;;;;8.05;67.23;97324.75;6124245;23;20025;-80
2022/09/22 02:17:18;;;;;;;6.18;4.00;;;;;;;8.02;66.39;97324.22;6125722;23;20414;-79
2022/09/22 02:19:46;;;;;;;5.40;4.28;;;;;;;7.95;66.03;97320.56;6126934;23;20022;-79
2022/09/22 02:22:14;;;;;;;6.05;4.95;;;;;;;7.87;66.30;97320.47;6125868;23;20022;-78
2022/09/22 02:24:43;;;;;;;3.85;3.55;;;;;;;7.87;68.98;97325.69;6126719;23;20024;-78
2022/09/22 02:27:14;;;;;;;5.72;4.97;;;;;;;7.96;70.56;97320.44;6125113;23;20025;-78
2022/09/22 02:29:47;;;;;;;5.20;4.68;;;;;;;8.03;72.86;97321.47;6125709;23;20358;-78
2022/09/22 02:32:17;;;;;;;5.40;4.35;;;;;;;8.04;69.94;97320.50;6125666;23;20022;-78
2022/09/22 02:34:47;;;;;;;6.10;4.40;;;;;;;7.98;68.69;97322.88;6126275;23;20041;-78
2022/09/22 02:37:22;;;;;;;5.20;4.32;;;;;;;7.92;68.08;97318.28;6125025;23;20026;-78
2022/09/22 02:40:03;;;;;;;5.10;3.70;;;;;;;7.91;69.21;97307.06;6126378;23;20410;-78
2022/09/22 02:42:36;;;;;;;5.75;4.47;;;;;;;7.92;68.03;97302.69;6126999;23;20022;-78
2022/09/22 02:45:11;;;;;;;5.47;4.22;;;;;;;7.97;70.65;97303.06;6126486;23;20021;-78
2022/09/22 02:47:43;;;;;;;4.85;4.35;;;;;;;7.97;70.72;97305.66;6126733;23;20056;-77
2022/09/22 02:50:15;;;;;;;6.20;4.85;;;;;;;7.96;68.51;97304.00;6125937;23;20029;-79
2022/09/22 02:52:43;;;;;;;5.65;4.95;;;;;;;7.98;70.45;97307.28;6127389;23;20207;-76
2022/09/22 02:55:13;;;;;;;5.53;4.28;;;;;;;7.99;71.69;97306.31;6126610;23;20021;-79
2022/09/22 02:57:40;;;;;;;4.72;4.22;;;;;;;8.04;73.11;97297.09;6126179;23;20025;-79
2022/09/22 03:00:09;;;;;;;5.75;4.50;;;;;;;8.07;71.08;97306.41;6125441;23;20485;-80
2022/09/22 03:02:36;;;;;;;5.68;3.55;;;;;;;8.04;69.66;97304.91;6126752;23;20057;-78
2022/09/22 03:05:05;;;;;;;5.55;4.47;;;;;;;7.99;69.35;97298.53;6126624;23;20102;-78
2022/09/22 03:07:33;;;;;;;3.78;3.33;;;;;;;7.99;70.83;97304.53;6126322;23;20102;-78
2022/09/22 03:10:01;;;;;;;4.45;4.05;;;;;;;8.03;73.02;97305.88;6125772;23;20038;-78
2022/09/22 03:12:29;;;;;;;4.20;3.72;;;;;;;8.10;74.42;97300.91;6126378;23;20025;-78
2022/09/22 03:14:56;;;;;;;5.32;3.60;;;;;;;8.10;71.58;97303.50;6125549;23;20093;-80
2022/09/22 03:17:24;;;;;;;5.53;3.45;;;;;;;8.00;70.21;97295.78;6125413;23;20113;-80
2022/09/22 03:19:51;;;;;;;4.15;3.75;;;;;;;7.95;69.58;97302.38;6125700;23;20021;-80
2022/09/22 03:22:19;;;;;;;3.97;3.67;;;;;;;7.94;71.13;97303.38;6124345;23;20097;-80
2022/09/22 03:24:48;;;;;;;4.65;4.25;;;;;;;7.96;73.40;97299.66;6125647;23;20021;-80
2022/09/22 03:27:15;;;;;;;7.45;5.10;;;;;;;7.93;70.84;97296.53;6124507;23;20026;-80
2022/09/22 03:29:43;;;;;;;6.45;5.00;;;;;;;7.87;69.81;97295.34;6125245;23;20057;-80
2022/09/22 03:32:10;;;;;;;9.73;5.85;;;;;;;7.83;71.47;97294.81;6124010;23;20018;-80
2022/09/22 03:34:38;;;;;;;8.15;5.32;;;;;;;7.86;71.74;97298.91;6125758;23;20022;-80
2022/09/22 03:37:05;;;;;;;10.90;5.43;;;;;;;7.83;71.42;97294.00;6125088;23;20025;-80
2022/09/22 03:39:33;;;;;;;6.97;4.55;;;;;;;7.80;73.00;97295.09;6125017;23;20018;-80
2022/09/22 03:42:01;;;;;;;8.18;5.10;;;;;;;7.78;69.96;97294.44;6124675;23;20029;-80
2022/09/22 03:44:29;;;;;;;7.25;5.32;;;;;;;7.68;68.42;97293.69;6125582;23;20022;-80
2022/09/22 03:46:57;;;;;;;5.78;4.13;;;;;;;7.56;68.25;97300.03;6125400;23;20064;-80
2022/09/22 03:49:25;;;;;;;4.88;4.07;;;;;;;7.51;68.61;97294.47;6125375;23;20061;-80
2022/09/22 03:51:53;;;;;;;5.05;4.50;;;;;;;7.48;67.87;97294.75;6124413;23;20018;-80
2022/09/22 03:54:21;;;;;;;5.65;4.20;;;;;;;7.47;68.17;97298.31;6125257;23;20148;-79
2022/09/22 03:56:49;;;;;;;8.95;4.57;;;;;;;7.54;71.78;97299.34;6124947;23;20022;-80
2022/09/22 03:59:17;;;;;;;12.48;4.25;;;;;;;7.65;74.22;97296.56;6125092;23;20030;-80
2022/09/22 04:01:46;;;;;;;7.80;5.07;;;;;;;7.67;72.38;97292.03;6124365;23;20105;-80
2022/09/22 04:04:13;;;;;;;7.90;5.07;;;;;;;7.59;69.31;97289.38;6124732;23;20057;-80
2022/09/22 04:06:41;;;;;;;6.43;5.57;;;;;;;7.49;68.54;97291.19;6125114;23;20466;-80
2022/09/22 04:09:08;;;;;;;6.32;4.82;;;;;;;7.39;68.03;97289.47;6124834;23;20054;-80
2022/09/22 04:11:36;;;;;;;7.35;5.45;;;;;;;7.32;67.61;97287.59;6123995;23;20025;-80
2022/09/22 04:14:04;;;;;;;5.75;4.82;;;;;;;7.23;67.58;97291.88;6125451;23;20366;-80
2022/09/22 04:16:32;;;;;;;8.25;4.97;;;;;;;7.15;67.95;97291.75;6125331;23;20024;-80
2022/09/22 04:19:03;;;;;;;5.75;4.95;;;;;;;7.16;67.94;97285.63;6124795;23;20032;-80
2022/09/22 04:21:31;;;;;;;6.70;5.13;;;;;;;7.23;71.40;97286.69;6124462;23;20355;-79
2022/09/22 04:23:59;;;;;;;6.38;4.97;;;;;;;7.31;73.07;97289.38;6125019;23;20022;-80
2022/09/22 04:26:26;;;;;;;9.77;3.83;;;;;;;7.29;69.40;97290.50;6124816;23;20054;-80
2022/09/22 04:28:54;;;;;;;7.20;4.40;;;;;;;7.21;69.68;97288.59;6124950;23;20029;-80
2022/09/22 04:31:21;;;;;;;9.40;4.32;;;;;;;7.18;68.91;97289.69;6124057;23;20049;-80
2022/09/22 04:33:50;;;;;;;6.75;4.30;;;;;;;7.15;68.21;97289.16;6125753;23;20018;-80
2022/09/22 04:36:18;;;;;;;9.13;4.78;;;;;;;7.16;69.51;97293.41;6125048;23;20022;-80
2022/09/22 04:38:46;;;;;;;7.25;5.63;;;;;;;7.13;67.74;97289.31;6125412;23;20033;-80
2022/09/22 04:41:14;;;;;;;8.65;6.32;;;;;;;7.06;67.85;97296.03;6126500;23;20419;-80
2022/09/22 04:43:42;;;;;;;9.52;5.43;;;;;;;7.06;67.68;97300.41;6127352;23;20029;-80
2022/09/22 04:46:09;;;;;;;5.45;4.60;;;;;;;7.05;67.46;97294.41;6126714;23;20490;-80
2022/09/22 04:48:37;;;;;;;9.48;5.60;;;;;;;7.04;67.10;97292.78;6136983;23;20022;-79
2022/09/22 04:51:06;;;;;;;8.63;5.65;;;;;;;6.96;67.06;97296.06;6144624;23;20096;-79
2022/09/22 04:53:34;;;;;;;11.60;6.65;;;;;;;6.90;67.28;97290.63;6134815;23;20502;-80
2022/09/22 04:56:01;;;;;;;10.13;6.25;;;;;;;6.85;67.32;97293.66;6127831;23;20018;-79
2022/09/22 04:58:30;;;;;;;8.80;5.18;;;;;;;6.86;68.13;97295.28;6128047;23;20028;-80
2022/09/22 05:01:02;;;;;;;6.07;4.45;;;;;;;6.87;67.97;97289.16;6130754;23;20466;-81
2022/09/22 05:06:13;;;;;;;4.93;3.80;;;;;;;6.87;68.90;97286.56;6172661;23;20292;-81
2022/09/22 05:08:40;;;;;;;8.50;4.78;;;;;;;6.93;68.82;97291.19;6156850;23;20032;-80
2022/09/22 05:11:08;;;;;;;10.98;6.72;;;;;;;6.91;68.28;97282.72;6155450;23;20053;-78
2022/09/22 05:13:37;;;;;;;6.90;4.32;;;;;;;6.89;67.96;97287.22;6156159;23;20032;-79
2022/09/22 05:16:05;;;;;;;4.45;3.88;;;;;;;6.88;67.80;97282.97;6156427;23;20021;-78
2022/09/22 05:18:33;;;;;;;9.80;4.75;;;;;;;6.89;67.78;97287.22;6154281;23;20022;-79
2022/09/22 05:21:01;;;;;;;6.47;4.07;;;;;;;6.90;68.16;97291.44;6153235;23;20021;-79
2022/09/22 05:23:31;;;;;;;10.32;5.22;;;;;;;6.88;67.73;97282.97;6154231;23;20100;-79
2022/09/22 05:25:58;;;;;;;7.00;4.68;;;;;;;6.90;68.92;97291.44;6153887;23;20022;-79
2022/09/22 05:28:26;;;;;;;5.93;4.43;;;;;;;6.99;70.17;97289.78;6153462;23;20540;-79
2022/09/22 05:30:53;;;;;;;6.38;4.63;;;;;;;7.01;68.90;97291.25;6153027;23;20028;-79
2022/09/22 05:33:21;;;;;;;6.82;4.50;;;;;;;7.02;68.03;97292.09;6154926;23;20108;-79
2022/09/22 05:35:49;;;;;;;6.07;4.50;;;;;;;7.00;68.20;97296.63;6156178;23;20096;-79
2022/09/22 05:38:16;;;;;;;6.43;4.47;;;;;;;7.04;69.13;97302.31;6156388;23;20028;-78
2022/09/22 05:40:46;;;;;;;11.90;6.38;;;;;;;7.04;67.89;97302.31;6155061;23;20021;-79
2022/09/22 05:43:15;;;;;;;10.27;5.10;;;;;;;7.00;67.59;97299.22;6156402;23;20021;-79
2022/09/22 05:45:43;;;;;;;7.75;5.30;;;;;;;6.96;67.53;97301.25;6156125;23;20022;-79
2022/09/22 05:48:11;;;;;;;7.38;4.80;;;;;;;6.96;67.64;97301.25;6155986;23;20029;-78
2022/09/22 05:50:38;;;;;;;9.20;4.63;;;;;;;6.98;67.45;97299.34;6154125;23;20531;-78
2022/09/22 05:53:09;;;;;;;5.65;4.53;;;;;;;7.04;68.32;97304.91;6156000;23;20021;-79
2022/09/22 05:55:38;;;;;;;6.28;4.72;;;;;;;7.09;68.69;97307.91;6156187;23;20022;-79
2022/09/22 05:58:10;;;;;;;8.05;5.05;;;;;;;7.12;68.73;97305.03;6155825;23;20022;-80
2022/09/22 06:00:38;;;;;;;7.70;4.53;;;;;;;7.12;69.87;97300.66;6154961;23;20026;-79
2022/09/22 06:03:06;;;;;;;7.60;5.38;;;;;;;7.15;69.48;97299.53;6155789;23;20100;-79
2022/09/22 06:05:34;;;;;;;7.30;5.53;;;;;;;7.18;69.88;97304.47;6155578;23;20076;-79
2022/09/22 06:08:06;;;;;;;8.10;5.00;;;;;;;7.21;70.58;97296.38;6155623;23;20096;-79
2022/09/22 06:10:36;;;;;;;7.43;5.25;;;;;;;7.26;71.93;97301.97;6154986;23;20028;-79
2022/09/22 06:13:05;;;;;;;8.65;5.93;;;;;;;7.31;70.96;97299.75;6155826;23;20027;-79
2022/09/22 06:15:35;;;;;;;8.25;6.07;;;;;;;7.36;72.40;97302.72;6155660;23;20029;-79
2022/09/22 06:18:05;;;;;;;8.13;6.10;;;;;;;7.42;73.29;97299.56;6155697;23;20025;-79
2022/09/22 06:20:33;;;;;;;7.82;6.13;;;;;;;7.43;71.19;97301.22;6154927;23;20048;-79
2022/09/22 06:23:00;;;;;;;7.38;5.68;;;;;;;7.42;70.72;97307.34;6155633;23;20025;-79
2022/09/22 06:25:28;;;;;;;7.25;4.78;;;;;;;7.49;71.18;97302.41;6155640;23;20028;-79
2022/09/22 06:28:00;;;;;;;8.02;4.93;;;;;;;7.64;74.58;97305.31;6155214;23;20466;-79
2022/09/22 06:30:29;;;;;;;7.72;5.18;;;;;;;7.79;74.40;97298.66;6154916;23;20025;-79
2022/09/22 06:32:58;;;;;;;8.55;5.03;;;;;;;7.98;75.17;97307.28;6155628;23;20025;-79
2022/09/22 06:35:30;;;;;;;5.88;4.30;;;;;;;8.08;72.35;97308.03;6155474;23;20024;-79
2022/09/22 06:37:58;;;;;;;8.57;4.47;;;;;;;8.15;70.61;97308.25;6155584;23;20367;-79
2022/09/22 06:40:26;;;;;;;5.47;4.00;;;;;;;8.27;70.63;97307.06;6154786;23;20327;-79
2022/09/22 06:42:57;;;;;;;6.35;3.92;;;;;;;8.40;68.92;97306.69;6155376;23;20021;-79
2022/09/22 06:45:26;;;;;;;4.80;3.53;;;;;;;8.56;68.69;97300.81;6155199;23;20032;-79
2022/09/22 06:47:59;;;;;;;5.03;3.78;;;;;;;8.74;69.06;97298.97;6154950;23;20017;-79
2022/09/22 06:50:28;;;;;;;5.05;3.88;;;;;;;8.95;68.18;97290.81;6154481;23;20021;-79
2022/09/22 06:52:59;;;;;;;5.10;3.80;;;;;;;9.14;66.95;97300.22;6155076;23;20458;-79
2022/09/22 06:55:27;;;;;;;5.13;3.35;;;;;;;9.33;66.25;97295.72;6155170;23;20017;-79
2022/09/22 06:57:56;;;;;;;5.20;3.30;;;;;;;9.53;65.88;97291.06;6155444;23;20018;-77
2022/09/22 07:00:30;;;;;;;4.53;3.17;;;;;;;9.75;67.16;97298.31;6153918;23;20013;-77
2022/09/22 07:03:05;;;;;;;5.70;3.50;;;;;;;10.01;67.32;97302.59;6154953;23;20045;-77
2022/09/22 07:05:33;;;;;;;3.72;3.38;;;;;;;10.19;64.92;97300.66;6154849;23;20029;-77
2022/09/22 07:08:00;;;;;;;7.13;3.72;;;;;;;10.35;63.95;97299.88;6155157;23;20412;-77
2022/09/22 07:10:28;;;;;;;7.43;6.18;;;;;;;10.52;64.88;97308.53;6154035;23;20022;-77
2022/09/22 07:12:59;;;;;;;7.43;6.07;;;;;;;10.71;65.22;97308.19;6155351;23;20028;-77
2022/09/22 07:15:28;;;;;;;5.07;4.15;;;;;;;10.91;63.40;97294.75;6155427;23;20027;-77
2022/09/22 07:17:55;;;;;;;7.40;4.50;;;;;;;11.13;63.13;97293.25;6154631;23;20024;-77
2022/09/22 07:20:24;;;;;;;7.72;4.57;;;;;;;11.38;62.26;97286.13;6153932;23;20538;-77
2022/09/22 07:22:59;;;;;;;7.38;4.45;;;;;;;11.63;61.21;97288.63;6154965;23;20026;-77
2022/09/22 07:25:27;;;;;;;8.88;3.60;;;;;;;11.84;61.63;97285.41;6155353;23;20060;-77
2022/09/22 07:39:02;;;;;;;23.08;7.63;;;;;;;13.15;58.10;97282.50;6067483;23;20367;-76
2022/09/22 07:41:31;;;;;;;37.33;9.88;;;;;;;13.48;57.14;97279.53;6067144;23;20050;-77
2022/09/22 07:45:11;;;;;;;23.65;7.72;;;;;;;13.87;56.57;97288.84;6067303;23;20045;-77
2022/09/22 07:46:48;;;;;;;9.00;5.25;;;;;;;14.34;55.64;97287.50;6066831;23;20028;-76
2022/09/22 07:49:16;;;;;;;7.55;3.67;;;;;;;14.83;54.38;97293.78;6067251;23;20086;-76
2022/09/22 07:51:43;;;;;;;5.63;4.05;;;;;;;15.32;53.28;97289.41;6066333;23;20026;-77
2022/09/22 07:54:12;;;;;;;7.68;4.07;;;;;;;15.88;51.49;97286.63;6066915;23;20019;-77
2022/09/22 07:56:42;;;;;;;3.67;2.95;;;;;;;16.46;50.52;97292.19;6067352;23;20325;-77
2022/09/22 07:59:11;;;;;;;5.75;2.97;;;;;;;17.09;49.26;97288.31;6067360;23;20023;-77
2022/09/22 08:01:42;;;;;;;2.80;1.90;;;;;;;17.73;46.77;97294.56;6066026;23;20023;-77
2022/09/22 08:04:14;;;;;;;4.45;1.95;;;;;;;18.35;45.76;97288.78;6066887;23;20551;-77
2022/09/22 08:06:42;;;;;;;1.50;1.05;;;;;;;18.99;44.42;97289.50;6067041;23;20105;-77
2022/09/22 08:09:11;;;;;;;1.52;0.95;;;;;;;19.62;41.84;97291.06;6067270;23;20057;-77
2022/09/22 08:11:47;;;;;;;0.63;0.63;;;;;;;20.22;40.27;97287.63;6066466;23;20023;-77
2022/09/22 08:14:17;;;;;;;0.70;0.60;;;;;;;20.84;39.06;97298.72;6068698;23;20412;-78
2022/09/22 08:16:45;;;;;;;1.25;0.47;;;;;;;21.28;37.82;97291.19;6069294;23;20025;-77
2022/09/22 08:19:13;;;;;;;1.23;0.63;;;;;;;21.76;36.69;97291.91;6069175;23;20053;-77
2022/09/22 08:21:42;;;;;;;0.43;0.43;;;;;;;22.15;35.40;97286.75;6068268;23;20030;-77
2022/09/22 08:24:20;;;;;;;0.70;0.50;;;;;;;22.39;33.92;97288.31;6069130;23;20078;-78
2022/09/22 08:26:51;;;;;;;0.43;0.43;;;;;;;22.54;33.46;97295.72;6069047;23;20065;-77
2022/09/22 08:29:19;;;;;;;0.85;0.70;;;;;;;22.87;33.44;97293.28;6070907;23;20027;-78
2022/09/22 08:31:47;;;;;;;1.52;0.47;;;;;;;23.11;32.44;97291.25;6072833;23;20022;-78
2022/09/22 08:34:16;;;;;;;1.58;0.60;;;;;;;23.27;32.08;97293.09;6076445;23;20027;-78
2022/09/22 08:36:45;;;;;;;1.15;0.55;;;;;;;23.45;31.36;97286.66;6079619;23;20546;-78
2022/09/22 08:39:14;;;;;;;0.85;0.70;;;;;;;23.58;31.11;97278.28;6081392;23;20022;-78
2022/09/22 08:41:49;;;;;;;0.50;0.50;;;;;;;23.74;30.08;97286.44;6077766;23;20023;-78
2022/09/22 08:44:22;;;;;;;3.88;1.00;;;;;;;23.94;29.86;97291.22;6079502;23;20367;-78
2022/09/22 08:46:52;;;;;;;0.90;0.77;;;;;;;24.08;30.31;97273.78;6081511;23;20088;-77
2022/09/22 08:52:18;;;;;;;1.55;0.90;;;;;;;24.50;28.92;97278.44;6075562;23;20089;-78
2022/09/22 08:54:46;;;;;;;0.80;0.80;;;;;;;24.80;29.74;97277.09;6082268;23;20034;-77
2022/09/22 08:57:39;;;;;;;1.77;1.00;;;;;;;25.09;28.35;97278.31;6085304;23;20096;-78
2022/09/22 09:00:13;;;;;;;1.00;0.90;;;;;;;25.37;27.65;97278.25;6082334;23;20070;-79
2022/09/22 09:02:45;;;;;;;0.73;0.60;;;;;;;25.51;27.07;97271.34;6076662;23;20329;-79
2022/09/22 09:05:48;;;;;;;0.80;0.80;;;;;;;25.49;27.05;97271.63;6080365;23;20030;-78
2022/09/22 09:08:23;;;;;;;;;;;;;;;25.92;27.83;97278.72;6082737;23;20404;-79
2022/09/22 09:10:54;;;;;;;0.70;0.63;;;;;;;26.41;26.67;97273.69;6076760;23;19944;-78
2022/09/22 09:13:43;;;;;;;2.33;0.88;;;;;;;26.80;25.49;97275.84;6078432;23;20022;-78
2022/09/22 09:16:30;;;;;;;0.77;0.77;;;;;;;27.20;25.30;97270.66;6083193;23;20029;-78
2022/09/22 09:19:10;;;;;;;1.00;1.00;;;;;;;27.44;24.27;97274.38;6079067;23;20061;-79
2022/09/22 09:21:44;;;;;;;2.17;0.90;;;;;;;27.43;24.35;97275.44;6079450;23;20510;-79
2022/09/22 09:24:17;;;;;;;1.55;0.98;;;;;;;27.73;24.77;97271.84;6080269;23;20256;-79
2022/09/22 09:27:12;;;;;;;1.10;1.00;;;;;;;28.09;22.82;97266.28;6076314;23;20084;-79
2022/09/22 09:29:47;;;;;;;0.68;0.68;;;;;;;28.36;22.53;97267.72;6075675;23;20055;-79
2022/09/22 09:32:22;;;;;;;1.20;1.15;;;;;;;28.83;22.01;97266.25;6075326;23;20055;-78
2022/09/22 09:34:50;;;;;;;1.98;1.48;;;;;;;29.44;22.26;97270.19;6076204;23;20023;-79
2022/09/22 09:37:23;;;;;;;;;;;;;;;30.18;21.51;97267.06;6074991;23;20023;-79
2022/09/22 09:39:51;;;;;;;0.60;0.60;;;;;;;30.78;20.41;97269.06;6075110;23;19938;-79
2022/09/22 09:42:25;;;;;;;0.95;0.88;;;;;;;31.33;19.23;97268.34;6074826;23;20309;-79
2022/09/22 09:44:54;;;;;;;0.50;0.50;;;;;;;31.88;18.87;97268.31;6074497;23;20216;-79
2022/09/22 09:47:35;;;;;;;1.30;0.70;;;;;;;32.28;18.02;97275.81;6074625;23;20351;-79
2022/09/22 09:50:03;;;;;;;0.63;0.63;;;;;;;32.64;18.69;97264.94;6073849;23;20567;-79
2022/09/22 09:52:31;;;;;;;0.90;0.75;;;;;;;33.12;16.89;97260.75;6074698;23;20026;-79
2022/09/22 09:55:00;;;;;;;0.98;0.60;;;;;;;33.16;16.98;97270.63;6073826;23;20468;-79
2022/09/22 09:57:28;;;;;;;2.50;0.63;;;;;;;33.52;17.13;97258.00;6072614;23;20105;-79
2022/09/22 10:00:31;;;;;;;0.95;0.55;;;;;;;33.87;16.89;97258.88;6072117;23;20053;-79
2022/09/22 10:03:19;;;;;;;0.63;0.32;;;;;;;34.25;17.21;97253.66;6073843;23;20022;-79
2022/09/22 10:06:01;;;;;;;1.20;0.40;;;;;;;34.41;16.77;97256.66;6076892;23;20109;-79
2022/09/22 10:08:33;;;;;;;2.22;0.40;;;;;;;34.27;16.98;97256.06;6075191;23;20068;-79
2022/09/22 10:11:00;;;;;;;0.50;0.50;;;;;;;34.02;17.67;97250.31;6075398;23;20026;-79
2022/09/22 10:13:31;;;;;;;2.13;0.47;;;;;;;34.61;17.48;97243.56;6075966;23;20070;-79
2022/09/22 10:16:05;;;;;;;3.92;0.80;;;;;;;35.63;15.95;97245.41;6084406;23;20027;-80
2022/09/22 10:18:39;;;;;;;0.55;0.30;;;;;;;36.22;14.56;97238.28;6084780;23;20334;-80
2022/09/22 10:21:14;;;;;;;1.15;0.40;;;;;;;35.89;15.12;97239.00;6086576;23;20078;-79
2022/09/22 10:23:43;;;;;;;1.23;0.50;;;;;;;35.98;15.50;97236.22;6087755;23;20046;-79
2022/09/22 10:26:18;;;;;;;1.58;0.40;;;;;;;36.84;15.00;97236.53;6086669;23;20027;-80
2022/09/22 10:29:05;;;;;;;0.52;0.40;;;;;;;37.85;13.70;97230.38;6082763;23;20548;-80
2022/09/22 10:31:37;;;;;;;0.38;0.35;;;;;;;38.71;13.52;97224.56;6081206;23;20031;-79
2022/09/22 10:34:24;;;;;;;0.50;0.50;;;;;;;38.83;13.02;97234.59;6085050;23;20029;-80
2022/09/22 10:36:51;;;;;;;2.17;0.43;;;;;;;39.05;12.92;97232.41;6084021;23;20098;-80
2022/09/22 10:39:19;;;;;;;1.73;0.55;;;;;;;39.35;12.51;97233.50;6079626;23;20416;-79
2022/09/22 10:41:48;;;;;;;1.13;1.13;;;;;;;39.81;12.31;97229.44;6078741;23;20083;-80
2022/09/22 10:44:19;;;;;;;0.75;0.40;;;;;;;40.01;12.01;97230.28;6079846;23;20426;-79
2022/09/22 10:47:21;;;;;;;1.05;0.90;;;;;;;40.50;11.68;97230.47;6078767;23;20019;-80
2022/09/22 10:50:20;;;;;;;1.00;0.43;;;;;;;41.23;11.36;97233.28;6077441;23;20047;-80
2022/09/22 10:52:55;;;;;;;1.38;0.80;;;;;;;41.60;10.81;97234.59;6077349;23;20599;-80
2022/09/22 10:55:30;;;;;;;3.45;1.20;;;;;;;41.38;11.18;97229.59;6077015;23;20022;-80
2022/09/22 10:58:35;;;;;;;0.95;0.68;;;;;;;40.65;11.18;97222.50;6081837;23;20101;-79
2022/09/22 11:01:18;;;;;;;1.75;0.63;;;;;;;40.59;11.61;97215.78;6015782;23;20351;-80
2022/09/22 11:04:16;;;;;;;0.60;0.60;;;;;;;41.09;11.46;97222.06;6075318;23;20027;-80
2022/09/22 11:12:46;;;;;;;0.80;0.80;;;;;;;41.79;11.00;97204.34;6074789;23;20033;-80
2022/09/22 11:15:39;;;;;;;0.70;0.68;;;;;;;42.03;10.57;97214.03;6078362;23;20033;-80
2022/09/22 11:18:20;;;;;;;0.70;0.52;;;;;;;42.06;9.94;97201.53;6074106;23;20023;-80
2022/09/22 11:20:51;;;;;;;;;;;;;;;42.39;10.04;97208.94;6074453;23;20033;-80
2022/09/22 11:23:45;;;;;;;0.55;0.50;;;;;;;42.57;10.45;97209.91;6077034;23;19936;-80
2022/09/22 11:26:32;;;;;;;1.00;0.60;;;;;;;42.80;10.38;97200.69;6075578;23;20033;-80
2022/09/22 11:29:26;;;;;;;0.82;0.60;;;;;;;42.90;10.36;97197.25;6077080;23;20049;-80
2022/09/22 11:32:04;;;;;;;1.05;1.02;;;;;;;42.85;9.73;97197.63;6078996;23;20018;-80
2022/09/22 11:35:03;;;;;;;1.20;0.98;;;;;;;42.77;10.18;97190.47;6081193;23;20515;-80
2022/09/22 11:37:42;;;;;;;2.63;0.88;;;;;;;42.90;9.94;97191.78;6049211;23;20057;-80
2022/09/22 11:40:32;;;;;;;0.90;0.60;;;;;;;42.88;10.26;97185.09;6082010;23;20019;-80
2022/09/22 11:43:15;;;;;;;3.08;1.65;;;;;;;42.81;9.85;97186.59;6073222;23;20471;-80
2022/09/22 11:45:52;;;;;;;2.17;0.98;;;;;;;41.97;10.76;97188.09;6072857;23;20467;-80
2022/09/22 11:48:34;;;;;;;0.50;0.50;;;;;;;41.87;10.53;97180.53;6075593;23;20102;-81
2022/09/22 11:51:23;;;;;;;0.77;0.77;;;;;;;41.91;10.25;97184.88;6078741;23;20098;-80
2022/09/22 11:54:20;;;;;;;0.68;0.65;;;;;;;42.04;10.86;97182.72;6077865;23;20101;-80
2022/09/22 11:56:52;;;;;;;1.70;1.20;;;;;;;41.67;10.10;97179.91;6074911;23;20490;-80
2022/09/22 11:59:30;;;;;;;0.75;0.65;;;;;;;40.79;10.69;97176.28;6078599;23;20023;-80
2022/09/22 12:02:03;;;;;;;2.00;0.70;;;;;;;38.85;12.16;97172.31;6076221;23;20547;-80
2022/09/22 12:04:36;;;;;;;1.25;1.15;;;;;;;37.87;11.99;97161.94;6076257;23;20058;-80
2022/09/22 12:07:12;;;;;;;0.93;0.85;;;;;;;37.25;12.68;97159.38;6073147;23;20417;-80
2022/09/22 12:09:45;;;;;;;0.93;0.63;;;;;;;35.57;13.84;97159.88;6071896;23;20023;-80
2022/09/22 12:12:18;;;;;;;0.77;0.77;;;;;;;33.71;15.90;97153.03;6075051;23;20476;-80
2022/09/22 12:14:55;;;;;;;2.53;1.02;;;;;;;32.22;16.65;97157.16;6078468;23;20023;-80
2022/09/22 12:17:29;;;;;;;1.48;0.77;;;;;;;31.02;18.38;97150.41;6078839;23;20033;-80
2022/09/22 12:20:07;;;;;;;2.28;1.20;;;;;;;29.94;19.54;97148.81;6075709;23;20019;-80
2022/09/22 12:22:53;;;;;;;0.93;0.65;;;;;;;28.82;20.80;97143.00;6077333;23;20107;-80
2022/09/22 12:25:43;;;;;;;1.05;0.75;;;;;;;27.85;22.19;97137.47;6075540;23;20058;-80
2022/09/22 12:28:19;;;;;;;0.80;0.80;;;;;;;27.04;22.41;97142.19;6080455;23;20027;-80